Terminal Aerodrome Forecast
Issued by NWS Sterling, VA

Home | Current Version | Previous Version | Text Only | Print | Product List | Glossary On
Versions: 1 2 3 4 5 6 7 8 9 10 11 12 13 14 15 16 17 18 19 20 21 22 23 24
800
FTUS41 KLWX 271730
TAFIAD
TAF
KIAD 271730Z 2718/2824 06005KT P6SM VCSH OVC060
     FM280800 VRB03KT P6SM BKN025
     FM281000 VRB03KT 3SM BR BKN010
     FM281100 VRB03KT 3SM BR BKN003
     FM281300 07004KT P6SM BKN008
     FM281400 10004KT P6SM BKN010
     FM282100 14008KT P6SM OVC050=

USA.gov is the U.S. government's official web portal to all federal, state and local government web resources and services.